sensor_id;sensor_type;location;lat;lon;timestamp;P1;durP1;ratioP1;P2;durP2;ratioP2
17953;SDS011;9102;53.548;9.926;2022-12-18T00:02:04;28.40;;;14.57;;
17953;SDS011;9102;53.548;9.926;2022-12-18T00:04:31;32.57;;;14.50;;
17953;SDS011;9102;53.548;9.926;2022-12-18T00:06:57;30.17;;;14.60;;
17953;SDS011;9102;53.548;9.926;2022-12-18T00:09:24;30.57;;;14.50;;
17953;SDS011;9102;53.548;9.926;2022-12-18T00:11:51;30.07;;;13.90;;
17953;SDS011;9102;53.548;9.926;2022-12-18T00:14:19;26.93;;;14.33;;
17953;SDS011;9102;53.548;9.926;2022-12-18T00:16:46;26.33;;;14.33;;
17953;SDS011;9102;53.548;9.926;2022-12-18T00:19:13;27.00;;;13.73;;
17953;SDS011;9102;53.548;9.926;2022-12-18T00:21:41;29.87;;;13.87;;
17953;SDS011;9102;53.548;9.926;2022-12-18T00:24:08;30.37;;;13.93;;
17953;SDS011;9102;53.548;9.926;2022-12-18T00:26:36;30.83;;;13.75;;
17953;SDS011;9102;53.548;9.926;2022-12-18T00:29:05;26.87;;;13.70;;
17953;SDS011;9102;53.548;9.926;2022-12-18T00:31:36;30.03;;;13.97;;
17953;SDS011;9102;53.548;9.926;2022-12-18T00:34:04;25.70;;;14.00;;
17953;SDS011;9102;53.548;9.926;2022-12-18T00:36:31;24.87;;;13.07;;
17953;SDS011;9102;53.548;9.926;2022-12-18T00:39:02;28.97;;;13.57;;
17953;SDS011;9102;53.548;9.926;2022-12-18T00:41:30;28.53;;;13.43;;
17953;SDS011;9102;53.548;9.926;2022-12-18T00:44:15;30.60;;;13.77;;
17953;SDS011;9102;53.548;9.926;2022-12-18T00:46:44;25.83;;;13.23;;
17953;SDS011;9102;53.548;9.926;2022-12-18T00:49:12;27.60;;;13.67;;
17953;SDS011;9102;53.548;9.926;2022-12-18T00:51:40;26.53;;;13.50;;
17953;SDS011;9102;53.548;9.926;2022-12-18T00:54:07;28.80;;;13.13;;
17953;SDS011;9102;53.548;9.926;2022-12-18T00:56:35;27.33;;;12.90;;
17953;SDS011;9102;53.548;9.926;2022-12-18T00:59:03;29.23;;;13.03;;
17953;SDS011;9102;53.548;9.926;2022-12-18T01:01:30;29.60;;;13.27;;
17953;SDS011;9102;53.548;9.926;2022-12-18T01:04:00;29.00;;;14.00;;
17953;SDS011;9102;53.548;9.926;2022-12-18T01:06:27;28.00;;;12.83;;
17953;SDS011;9102;53.548;9.926;2022-12-18T01:08:55;25.93;;;13.00;;
17953;SDS011;9102;53.548;9.926;2022-12-18T01:11:21;25.97;;;12.83;;
17953;SDS011;9102;53.548;9.926;2022-12-18T01:13:49;29.73;;;15.13;;
17953;SDS011;9102;53.548;9.926;2022-12-18T01:16:17;28.87;;;13.30;;
17953;SDS011;9102;53.548;9.926;2022-12-18T01:18:45;26.77;;;12.70;;
17953;SDS011;9102;53.548;9.926;2022-12-18T01:21:14;27.33;;;13.20;;
17953;SDS011;9102;53.548;9.926;2022-12-18T01:23:42;25.40;;;12.53;;
17953;SDS011;9102;53.548;9.926;2022-12-18T01:26:10;26.17;;;13.00;;
17953;SDS011;9102;53.548;9.926;2022-12-18T01:28:38;29.67;;;13.13;;
17953;SDS011;9102;53.548;9.926;2022-12-18T01:31:15;29.00;;;13.60;;
17953;SDS011;9102;53.548;9.926;2022-12-18T01:33:44;30.23;;;13.30;;
17953;SDS011;9102;53.548;9.926;2022-12-18T01:36:17;26.47;;;12.67;;
17953;SDS011;9102;53.548;9.926;2022-12-18T01:38:45;31.63;;;13.83;;
17953;SDS011;9102;53.548;9.926;2022-12-18T01:41:13;29.47;;;13.83;;
17953;SDS011;9102;53.548;9.926;2022-12-18T01:43:42;28.83;;;12.73;;
17953;SDS011;9102;53.548;9.926;2022-12-18T01:46:13;27.07;;;13.17;;
17953;SDS011;9102;53.548;9.926;2022-12-18T01:48:41;27.63;;;12.97;;
17953;SDS011;9102;53.548;9.926;2022-12-18T01:51:09;27.60;;;12.67;;
17953;SDS011;9102;53.548;9.926;2022-12-18T01:53:39;26.07;;;12.10;;
17953;SDS011;9102;53.548;9.926;2022-12-18T01:56:08;24.53;;;12.10;;
17953;SDS011;9102;53.548;9.926;2022-12-18T01:58:41;25.70;;;12.13;;
17953;SDS011;9102;53.548;9.926;2022-12-18T02:01:14;26.60;;;12.83;;
17953;SDS011;9102;53.548;9.926;2022-12-18T02:03:42;24.90;;;12.13;;
17953;SDS011;9102;53.548;9.926;2022-12-18T02:06:11;25.70;;;11.90;;
17953;SDS011;9102;53.548;9.926;2022-12-18T02:08:43;26.23;;;11.73;;
17953;SDS011;9102;53.548;9.926;2022-12-18T02:11:22;24.02;;;11.73;;
17953;SDS011;9102;53.548;9.926;2022-12-18T02:14:00;24.23;;;11.63;;
17953;SDS011;9102;53.548;9.926;2022-12-18T02:16:37;28.10;;;12.60;;
17953;SDS011;9102;53.548;9.926;2022-12-18T02:19:13;23.90;;;12.33;;
17953;SDS011;9102;53.548;9.926;2022-12-18T02:21:56;28.40;;;12.40;;
17953;SDS011;9102;53.548;9.926;2022-12-18T02:24:35;26.37;;;11.60;;
17953;SDS011;9102;53.548;9.926;2022-12-18T02:27:11;27.13;;;11.67;;
17953;SDS011;9102;53.548;9.926;2022-12-18T02:29:40;24.63;;;11.80;;
17953;SDS011;9102;53.548;9.926;2022-12-18T02:32:13;30.07;;;12.63;;
17953;SDS011;9102;53.548;9.926;2022-12-18T02:34:43;25.20;;;12.10;;
17953;SDS011;9102;53.548;9.926;2022-12-18T02:37:12;24.37;;;11.70;;
17953;SDS011;9102;53.548;9.926;2022-12-18T02:39:42;24.60;;;12.37;;
17953;SDS011;9102;53.548;9.926;2022-12-18T02:42:12;31.57;;;12.67;;
17953;SDS011;9102;53.548;9.926;2022-12-18T02:44:43;33.17;;;13.23;;
17953;SDS011;9102;53.548;9.926;2022-12-18T02:47:10;23.63;;;11.83;;
17953;SDS011;9102;53.548;9.926;2022-12-18T02:49:40;20.92;;;11.68;;
17953;SDS011;9102;53.548;9.926;2022-12-18T02:52:13;28.40;;;11.80;;
17953;SDS011;9102;53.548;9.926;2022-12-18T02:54:53;26.13;;;12.50;;
17953;SDS011;9102;53.548;9.926;2022-12-18T02:57:30;29.23;;;13.47;;
17953;SDS011;9102;53.548;9.926;2022-12-18T03:00:03;27.90;;;12.47;;
17953;SDS011;9102;53.548;9.926;2022-12-18T03:02:33;27.83;;;12.50;;
17953;SDS011;9102;53.548;9.926;2022-12-18T03:05:07;27.37;;;12.03;;
17953;SDS011;9102;53.548;9.926;2022-12-18T03:07:40;24.93;;;12.63;;
17953;SDS011;9102;53.548;9.926;2022-12-18T03:10:13;24.58;;;11.88;;
17953;SDS011;9102;53.548;9.926;2022-12-18T03:12:49;24.37;;;12.53;;
17953;SDS011;9102;53.548;9.926;2022-12-18T03:15:21;23.40;;;11.27;;
17953;SDS011;9102;53.548;9.926;2022-12-18T03:17:52;31.30;;;12.53;;
17953;SDS011;9102;53.548;9.926;2022-12-18T03:20:22;24.77;;;12.00;;
17953;SDS011;9102;53.548;9.926;2022-12-18T03:22:53;21.20;;;11.67;;
17953;SDS011;9102;53.548;9.926;2022-12-18T03:25:25;27.43;;;11.83;;
17953;SDS011;9102;53.548;9.926;2022-12-18T03:27:55;23.97;;;11.37;;
17953;SDS011;9102;53.548;9.926;2022-12-18T03:30:25;26.67;;;11.70;;
17953;SDS011;9102;53.548;9.926;2022-12-18T03:32:58;27.20;;;12.20;;
17953;SDS011;9102;53.548;9.926;2022-12-18T03:35:32;24.80;;;11.67;;
17953;SDS011;9102;53.548;9.926;2022-12-18T03:38:02;29.23;;;11.50;;
17953;SDS011;9102;53.548;9.926;2022-12-18T03:40:29;28.93;;;11.43;;
17953;SDS011;9102;53.548;9.926;2022-12-18T03:43:08;26.67;;;12.80;;
17953;SDS011;9102;53.548;9.926;2022-12-18T03:45:38;23.10;;;11.77;;
17953;SDS011;9102;53.548;9.926;2022-12-18T03:48:12;25.30;;;11.33;;
17953;SDS011;9102;53.548;9.926;2022-12-18T03:50:44;23.73;;;11.77;;
17953;SDS011;9102;53.548;9.926;2022-12-18T03:53:17;24.07;;;11.57;;
17953;SDS011;9102;53.548;9.926;2022-12-18T03:55:49;24.60;;;11.50;;
17953;SDS011;9102;53.548;9.926;2022-12-18T03:58:19;22.30;;;11.37;;
17953;SDS011;9102;53.548;9.926;2022-12-18T04:00:48;24.90;;;11.43;;
17953;SDS011;9102;53.548;9.926;2022-12-18T04:03:18;25.60;;;10.97;;
17953;SDS011;9102;53.548;9.926;2022-12-18T04:05:46;21.87;;;11.23;;
17953;SDS011;9102;53.548;9.926;2022-12-18T04:08:17;23.17;;;12.13;;
17953;SDS011;9102;53.548;9.926;2022-12-18T04:10:45;22.33;;;10.43;;
17953;SDS011;9102;53.548;9.926;2022-12-18T04:13:11;22.47;;;11.10;;
17953;SDS011;9102;53.548;9.926;2022-12-18T04:15:40;23.90;;;11.23;;
17953;SDS011;9102;53.548;9.926;2022-12-18T04:18:07;20.93;;;10.43;;
17953;SDS011;9102;53.548;9.926;2022-12-18T04:20:34;25.30;;;10.47;;
17953;SDS011;9102;53.548;9.926;2022-12-18T04:23:01;25.73;;;10.83;;
17953;SDS011;9102;53.548;9.926;2022-12-18T04:25:27;22.30;;;11.20;;
17953;SDS011;9102;53.548;9.926;2022-12-18T04:27:54;23.80;;;11.27;;
17953;SDS011;9102;53.548;9.926;2022-12-18T04:30:21;22.77;;;10.40;;
17953;SDS011;9102;53.548;9.926;2022-12-18T04:32:49;22.97;;;11.23;;
17953;SDS011;9102;53.548;9.926;2022-12-18T04:35:16;22.50;;;10.77;;
17953;SDS011;9102;53.548;9.926;2022-12-18T04:37:43;23.63;;;11.37;;
17953;SDS011;9102;53.548;9.926;2022-12-18T04:40:10;22.07;;;10.53;;
17953;SDS011;9102;53.548;9.926;2022-12-18T04:42:38;20.70;;;10.50;;
17953;SDS011;9102;53.548;9.926;2022-12-18T04:45:06;23.73;;;10.60;;
17953;SDS011;9102;53.548;9.926;2022-12-18T04:47:33;21.73;;;10.63;;
17953;SDS011;9102;53.548;9.926;2022-12-18T04:50:02;20.93;;;10.60;;
17953;SDS011;9102;53.548;9.926;2022-12-18T04:52:29;22.70;;;10.63;;
17953;SDS011;9102;53.548;9.926;2022-12-18T04:54:57;21.10;;;9.93;;
17953;SDS011;9102;53.548;9.926;2022-12-18T04:57:24;24.83;;;10.80;;
17953;SDS011;9102;53.548;9.926;2022-12-18T04:59:51;22.33;;;11.30;;
17953;SDS011;9102;53.548;9.926;2022-12-18T05:02:17;25.90;;;12.87;;
17953;SDS011;9102;53.548;9.926;2022-12-18T05:04:44;26.03;;;11.67;;
17953;SDS011;9102;53.548;9.926;2022-12-18T05:07:12;24.70;;;12.47;;
17953;SDS011;9102;53.548;9.926;2022-12-18T05:09:39;25.17;;;12.20;;
17953;SDS011;9102;53.548;9.926;2022-12-18T05:12:06;24.17;;;11.43;;
17953;SDS011;9102;53.548;9.926;2022-12-18T05:14:33;28.03;;;11.43;;
17953;SDS011;9102;53.548;9.926;2022-12-18T05:16:59;24.43;;;11.80;;
17953;SDS011;9102;53.548;9.926;2022-12-18T05:19:26;24.50;;;11.97;;
17953;SDS011;9102;53.548;9.926;2022-12-18T05:21:53;24.43;;;12.37;;
17953;SDS011;9102;53.548;9.926;2022-12-18T05:24:21;23.13;;;11.60;;
17953;SDS011;9102;53.548;9.926;2022-12-18T05:26:48;25.13;;;12.33;;
17953;SDS011;9102;53.548;9.926;2022-12-18T05:29:15;23.57;;;12.47;;
17953;SDS011;9102;53.548;9.926;2022-12-18T05:31:41;22.33;;;11.90;;
17953;SDS011;9102;53.548;9.926;2022-12-18T05:34:08;23.30;;;11.33;;
17953;SDS011;9102;53.548;9.926;2022-12-18T05:36:35;23.50;;;13.03;;
17953;SDS011;9102;53.548;9.926;2022-12-18T05:39:02;25.17;;;12.43;;
17953;SDS011;9102;53.548;9.926;2022-12-18T05:41:30;25.67;;;12.43;;
17953;SDS011;9102;53.548;9.926;2022-12-18T05:43:57;22.73;;;11.73;;
17953;SDS011;9102;53.548;9.926;2022-12-18T05:46:25;24.93;;;11.83;;
17953;SDS011;9102;53.548;9.926;2022-12-18T05:48:52;26.10;;;11.73;;
17953;SDS011;9102;53.548;9.926;2022-12-18T05:51:19;26.67;;;11.87;;
17953;SDS011;9102;53.548;9.926;2022-12-18T05:53:48;27.30;;;13.00;;
17953;SDS011;9102;53.548;9.926;2022-12-18T05:56:16;22.00;;;11.03;;
17953;SDS011;9102;53.548;9.926;2022-12-18T05:58:45;21.80;;;11.30;;
17953;SDS011;9102;53.548;9.926;2022-12-18T06:01:13;23.00;;;11.27;;
17953;SDS011;9102;53.548;9.926;2022-12-18T06:03:41;21.73;;;11.63;;
17953;SDS011;9102;53.548;9.926;2022-12-18T06:06:15;24.37;;;11.83;;
17953;SDS011;9102;53.548;9.926;2022-12-18T06:08:43;22.70;;;11.40;;
17953;SDS011;9102;53.548;9.926;2022-12-18T06:11:10;22.97;;;11.23;;
17953;SDS011;9102;53.548;9.926;2022-12-18T06:13:36;24.77;;;10.90;;
17953;SDS011;9102;53.548;9.926;2022-12-18T06:16:05;21.87;;;11.73;;
17953;SDS011;9102;53.548;9.926;2022-12-18T06:18:33;27.80;;;11.97;;
17953;SDS011;9102;53.548;9.926;2022-12-18T06:21:00;22.50;;;11.10;;
17953;SDS011;9102;53.548;9.926;2022-12-18T06:23:27;20.27;;;10.87;;
17953;SDS011;9102;53.548;9.926;2022-12-18T06:25:53;22.87;;;11.13;;
17953;SDS011;9102;53.548;9.926;2022-12-18T06:28:20;23.30;;;12.00;;
17953;SDS011;9102;53.548;9.926;2022-12-18T06:30:48;25.63;;;11.43;;
17953;SDS011;9102;53.548;9.926;2022-12-18T06:33:16;26.13;;;12.13;;
17953;SDS011;9102;53.548;9.926;2022-12-18T06:35:43;23.07;;;10.93;;
17953;SDS011;9102;53.548;9.926;2022-12-18T06:38:10;23.00;;;10.37;;
17953;SDS011;9102;53.548;9.926;2022-12-18T06:40:37;23.00;;;11.77;;
17953;SDS011;9102;53.548;9.926;2022-12-18T06:43:05;23.13;;;11.33;;
17953;SDS011;9102;53.548;9.926;2022-12-18T06:45:32;22.60;;;11.33;;
17953;SDS011;9102;53.548;9.926;2022-12-18T06:47:58;18.70;;;9.90;;
17953;SDS011;9102;53.548;9.926;2022-12-18T06:50:27;24.57;;;11.67;;
17953;SDS011;9102;53.548;9.926;2022-12-18T06:52:53;22.00;;;11.03;;
17953;SDS011;9102;53.548;9.926;2022-12-18T06:55:20;21.57;;;11.47;;
17953;SDS011;9102;53.548;9.926;2022-12-18T06:57:47;23.57;;;10.57;;
17953;SDS011;9102;53.548;9.926;2022-12-18T07:00:14;22.43;;;10.30;;
17953;SDS011;9102;53.548;9.926;2022-12-18T07:02:41;26.77;;;12.00;;
17953;SDS011;9102;53.548;9.926;2022-12-18T07:05:08;21.87;;;11.20;;
17953;SDS011;9102;53.548;9.926;2022-12-18T07:07:36;20.77;;;11.13;;
17953;SDS011;9102;53.548;9.926;2022-12-18T07:10:03;24.73;;;11.10;;
17953;SDS011;9102;53.548;9.926;2022-12-18T07:12:30;20.63;;;12.20;;
17953;SDS011;9102;53.548;9.926;2022-12-18T07:14:57;23.57;;;11.40;;
17953;SDS011;9102;53.548;9.926;2022-12-18T07:17:24;21.50;;;11.17;;
17953;SDS011;9102;53.548;9.926;2022-12-18T07:19:51;25.37;;;11.70;;
17953;SDS011;9102;53.548;9.926;2022-12-18T07:22:18;22.53;;;11.67;;
17953;SDS011;9102;53.548;9.926;2022-12-18T07:24:46;22.77;;;10.60;;
17953;SDS011;9102;53.548;9.926;2022-12-18T07:27:13;21.13;;;10.87;;
17953;SDS011;9102;53.548;9.926;2022-12-18T07:29:39;24.27;;;10.90;;
17953;SDS011;9102;53.548;9.926;2022-12-18T07:32:06;23.23;;;11.63;;
17953;SDS011;9102;53.548;9.926;2022-12-18T07:34:33;22.40;;;10.37;;
17953;SDS011;9102;53.548;9.926;2022-12-18T07:37:00;23.20;;;11.67;;
17953;SDS011;9102;53.548;9.926;2022-12-18T07:39:27;25.23;;;12.00;;
17953;SDS011;9102;53.548;9.926;2022-12-18T07:41:55;23.20;;;11.20;;
17953;SDS011;9102;53.548;9.926;2022-12-18T07:44:42;21.57;;;11.50;;
17953;SDS011;9102;53.548;9.926;2022-12-18T07:47:09;20.77;;;11.37;;
17953;SDS011;9102;53.548;9.926;2022-12-18T07:49:36;24.17;;;10.93;;
17953;SDS011;9102;53.548;9.926;2022-12-18T07:52:03;24.17;;;10.53;;
17953;SDS011;9102;53.548;9.926;2022-12-18T07:54:29;27.37;;;10.73;;
17953;SDS011;9102;53.548;9.926;2022-12-18T07:56:59;19.73;;;10.63;;
17953;SDS011;9102;53.548;9.926;2022-12-18T07:59:26;23.23;;;10.43;;
17953;SDS011;9102;53.548;9.926;2022-12-18T08:01:52;20.07;;;10.97;;
17953;SDS011;9102;53.548;9.926;2022-12-18T08:04:19;23.30;;;10.47;;
17953;SDS011;9102;53.548;9.926;2022-12-18T08:06:46;25.47;;;12.10;;
17953;SDS011;9102;53.548;9.926;2022-12-18T08:09:13;22.83;;;11.37;;
17953;SDS011;9102;53.548;9.926;2022-12-18T08:11:42;31.43;;;11.67;;
17953;SDS011;9102;53.548;9.926;2022-12-18T08:14:10;24.53;;;12.17;;
17953;SDS011;9102;53.548;9.926;2022-12-18T08:16:36;22.77;;;11.30;;
17953;SDS011;9102;53.548;9.926;2022-12-18T08:19:03;31.13;;;12.40;;
17953;SDS011;9102;53.548;9.926;2022-12-18T08:21:30;24.40;;;11.63;;
17953;SDS011;9102;53.548;9.926;2022-12-18T08:23:59;26.60;;;12.40;;
17953;SDS011;9102;53.548;9.926;2022-12-18T08:26:29;24.03;;;11.33;;
17953;SDS011;9102;53.548;9.926;2022-12-18T08:28:57;23.43;;;12.10;;
17953;SDS011;9102;53.548;9.926;2022-12-18T08:31:27;23.23;;;10.70;;
17953;SDS011;9102;53.548;9.926;2022-12-18T08:33:55;19.93;;;10.83;;
17953;SDS011;9102;53.548;9.926;2022-12-18T08:36:22;21.53;;;10.23;;
17953;SDS011;9102;53.548;9.926;2022-12-18T08:38:50;21.13;;;10.57;;
17953;SDS011;9102;53.548;9.926;2022-12-18T08:41:17;21.97;;;10.80;;
17953;SDS011;9102;53.548;9.926;2022-12-18T08:43:44;21.90;;;10.53;;
17953;SDS011;9102;53.548;9.926;2022-12-18T08:46:32;21.93;;;9.93;;
17953;SDS011;9102;53.548;9.926;2022-12-18T08:49:01;21.03;;;10.90;;
17953;SDS011;9102;53.548;9.926;2022-12-18T08:51:29;25.70;;;11.70;;
17953;SDS011;9102;53.548;9.926;2022-12-18T08:54:00;19.23;;;10.67;;
17953;SDS011;9102;53.548;9.926;2022-12-18T08:56:30;21.77;;;10.97;;
17953;SDS011;9102;53.548;9.926;2022-12-18T08:58:57;23.57;;;11.57;;
17953;SDS011;9102;53.548;9.926;2022-12-18T09:01:24;21.70;;;10.77;;
17953;SDS011;9102;53.548;9.926;2022-12-18T09:03:52;19.63;;;10.87;;
17953;SDS011;9102;53.548;9.926;2022-12-18T09:06:19;20.67;;;10.63;;
17953;SDS011;9102;53.548;9.926;2022-12-18T09:08:47;21.93;;;10.97;;
17953;SDS011;9102;53.548;9.926;2022-12-18T09:11:15;20.27;;;10.20;;
17953;SDS011;9102;53.548;9.926;2022-12-18T09:13:46;23.57;;;10.20;;
17953;SDS011;9102;53.548;9.926;2022-12-18T09:16:12;22.13;;;11.60;;
17953;SDS011;9102;53.548;9.926;2022-12-18T09:18:39;24.97;;;10.60;;
17953;SDS011;9102;53.548;9.926;2022-12-18T09:21:11;22.33;;;10.23;;
17953;SDS011;9102;53.548;9.926;2022-12-18T09:23:39;20.10;;;10.30;;
17953;SDS011;9102;53.548;9.926;2022-12-18T09:26:06;21.67;;;10.27;;
17953;SDS011;9102;53.548;9.926;2022-12-18T09:28:33;22.07;;;10.50;;
17953;SDS011;9102;53.548;9.926;2022-12-18T09:31:03;19.60;;;9.97;;
17953;SDS011;9102;53.548;9.926;2022-12-18T09:33:32;21.87;;;9.70;;
17953;SDS011;9102;53.548;9.926;2022-12-18T09:36:00;22.83;;;10.97;;
17953;SDS011;9102;53.548;9.926;2022-12-18T09:38:29;23.57;;;10.60;;
17953;SDS011;9102;53.548;9.926;2022-12-18T09:40:58;21.80;;;10.27;;
17953;SDS011;9102;53.548;9.926;2022-12-18T09:43:29;19.77;;;9.90;;
17953;SDS011;9102;53.548;9.926;2022-12-18T09:46:04;19.63;;;9.40;;
17953;SDS011;9102;53.548;9.926;2022-12-18T09:48:35;20.00;;;9.83;;
17953;SDS011;9102;53.548;9.926;2022-12-18T09:51:08;20.17;;;10.07;;
17953;SDS011;9102;53.548;9.926;2022-12-18T09:53:39;45.77;;;21.87;;
17953;SDS011;9102;53.548;9.926;2022-12-18T09:56:10;25.60;;;14.53;;
17953;SDS011;9102;53.548;9.926;2022-12-18T09:58:43;19.43;;;9.27;;
17953;SDS011;9102;53.548;9.926;2022-12-18T10:01:15;21.25;;;10.25;;
17953;SDS011;9102;53.548;9.926;2022-12-18T10:03:47;23.60;;;10.53;;
17953;SDS011;9102;53.548;9.926;2022-12-18T10:06:15;19.77;;;9.77;;
17953;SDS011;9102;53.548;9.926;2022-12-18T10:08:51;20.90;;;9.53;;
17953;SDS011;9102;53.548;9.926;2022-12-18T10:11:26;20.30;;;9.80;;
17953;SDS011;9102;53.548;9.926;2022-12-18T10:14:01;17.70;;;9.57;;
17953;SDS011;9102;53.548;9.926;2022-12-18T10:16:33;24.50;;;9.53;;
17953;SDS011;9102;53.548;9.926;2022-12-18T10:19:11;20.83;;;9.33;;
17953;SDS011;9102;53.548;9.926;2022-12-18T10:21:48;21.67;;;8.90;;
17953;SDS011;9102;53.548;9.926;2022-12-18T10:24:24;20.37;;;9.80;;
17953;SDS011;9102;53.548;9.926;2022-12-18T10:26:58;20.00;;;9.53;;
17953;SDS011;9102;53.548;9.926;2022-12-18T10:29:35;17.33;;;9.25;;
17953;SDS011;9102;53.548;9.926;2022-12-18T10:32:02;16.50;;;8.70;;
17953;SDS011;9102;53.548;9.926;2022-12-18T10:34:30;19.27;;;10.23;;
17953;SDS011;9102;53.548;9.926;2022-12-18T10:36:57;18.30;;;9.90;;
17953;SDS011;9102;53.548;9.926;2022-12-18T10:39:28;21.10;;;10.77;;
17953;SDS011;9102;53.548;9.926;2022-12-18T10:41:59;19.27;;;10.50;;
17953;SDS011;9102;53.548;9.926;2022-12-18T10:44:36;20.13;;;11.23;;
17953;SDS011;9102;53.548;9.926;2022-12-18T10:47:03;18.77;;;10.30;;
17953;SDS011;9102;53.548;9.926;2022-12-18T10:49:32;24.07;;;10.40;;
17953;SDS011;9102;53.548;9.926;2022-12-18T10:52:05;21.30;;;9.83;;
17953;SDS011;9102;53.548;9.926;2022-12-18T10:54:38;20.47;;;9.73;;
17953;SDS011;9102;53.548;9.926;2022-12-18T10:57:15;20.90;;;10.53;;
17953;SDS011;9102;53.548;9.926;2022-12-18T10:59:49;22.20;;;10.90;;
17953;SDS011;9102;53.548;9.926;2022-12-18T11:02:24;20.27;;;10.30;;
17953;SDS011;9102;53.548;9.926;2022-12-18T11:04:53;22.17;;;10.60;;
17953;SDS011;9102;53.548;9.926;2022-12-18T11:07:20;21.70;;;11.02;;
17953;SDS011;9102;53.548;9.926;2022-12-18T11:09:59;21.70;;;10.97;;
17953;SDS011;9102;53.548;9.926;2022-12-18T11:12:27;24.08;;;11.43;;
17953;SDS011;9102;53.548;9.926;2022-12-18T11:14:55;22.07;;;11.63;;
17953;SDS011;9102;53.548;9.926;2022-12-18T11:17:24;23.53;;;10.90;;
17953;SDS011;9102;53.548;9.926;2022-12-18T11:19:54;25.53;;;11.57;;
17953;SDS011;9102;53.548;9.926;2022-12-18T11:22:23;23.13;;;11.17;;
17953;SDS011;9102;53.548;9.926;2022-12-18T11:24:54;20.00;;;10.70;;
17953;SDS011;9102;53.548;9.926;2022-12-18T11:27:24;23.47;;;11.63;;
17953;SDS011;9102;53.548;9.926;2022-12-18T11:29:52;23.43;;;12.50;;
17953;SDS011;9102;53.548;9.926;2022-12-18T11:32:21;27.33;;;12.37;;
17953;SDS011;9102;53.548;9.926;2022-12-18T11:34:54;23.30;;;12.20;;
17953;SDS011;9102;53.548;9.926;2022-12-18T11:37:27;23.33;;;11.00;;
17953;SDS011;9102;53.548;9.926;2022-12-18T11:39:57;23.73;;;11.20;;
17953;SDS011;9102;53.548;9.926;2022-12-18T11:42:27;26.30;;;11.63;;
17953;SDS011;9102;53.548;9.926;2022-12-18T11:45:02;26.67;;;12.33;;
17953;SDS011;9102;53.548;9.926;2022-12-18T11:47:50;23.67;;;11.90;;
17953;SDS011;9102;53.548;9.926;2022-12-18T11:50:23;22.97;;;12.03;;
17953;SDS011;9102;53.548;9.926;2022-12-18T11:52:51;25.40;;;12.52;;
17953;SDS011;9102;53.548;9.926;2022-12-18T11:55:22;25.85;;;13.90;;
17953;SDS011;9102;53.548;9.926;2022-12-18T11:57:58;27.80;;;13.57;;
17953;SDS011;9102;53.548;9.926;2022-12-18T12:00:32;28.37;;;13.60;;
17953;SDS011;9102;53.548;9.926;2022-12-18T12:03:09;26.10;;;13.40;;
17953;SDS011;9102;53.548;9.926;2022-12-18T12:05:58;28.27;;;12.57;;
17953;SDS011;9102;53.548;9.926;2022-12-18T12:08:40;33.63;;;13.20;;
17953;SDS011;9102;53.548;9.926;2022-12-18T12:11:18;24.25;;;12.10;;
17953;SDS011;9102;53.548;9.926;2022-12-18T12:13:58;28.40;;;13.10;;
17953;SDS011;9102;53.548;9.926;2022-12-18T12:16:33;28.02;;;12.85;;
17953;SDS011;9102;53.548;9.926;2022-12-18T12:19:07;26.20;;;13.25;;
17953;SDS011;9102;53.548;9.926;2022-12-18T12:21:52;29.73;;;14.33;;
17953;SDS011;9102;53.548;9.926;2022-12-18T12:24:26;28.25;;;13.25;;
17953;SDS011;9102;53.548;9.926;2022-12-18T12:27:06;28.20;;;14.07;;
17953;SDS011;9102;53.548;9.926;2022-12-18T12:29:45;29.17;;;13.67;;
17953;SDS011;9102;53.548;9.926;2022-12-18T12:32:22;30.37;;;13.17;;
17953;SDS011;9102;53.548;9.926;2022-12-18T12:35:00;26.93;;;13.37;;
17953;SDS011;9102;53.548;9.926;2022-12-18T12:37:38;28.00;;;13.00;;
17953;SDS011;9102;53.548;9.926;2022-12-18T12:40:15;24.17;;;12.17;;
17953;SDS011;9102;53.548;9.926;2022-12-18T12:42:46;25.23;;;13.70;;
17953;SDS011;9102;53.548;9.926;2022-12-18T12:45:36;26.67;;;12.83;;
17953;SDS011;9102;53.548;9.926;2022-12-18T12:48:07;30.43;;;13.57;;
17953;SDS011;9102;53.548;9.926;2022-12-18T12:50:42;28.20;;;12.07;;
17953;SDS011;9102;53.548;9.926;2022-12-18T12:53:21;23.87;;;11.63;;
17953;SDS011;9102;53.548;9.926;2022-12-18T12:55:52;26.90;;;12.37;;
17953;SDS011;9102;53.548;9.926;2022-12-18T12:58:23;25.93;;;12.47;;
17953;SDS011;9102;53.548;9.926;2022-12-18T13:01:01;29.87;;;13.17;;
17953;SDS011;9102;53.548;9.926;2022-12-18T13:03:41;27.23;;;12.47;;
17953;SDS011;9102;53.548;9.926;2022-12-18T13:06:13;32.57;;;14.73;;
17953;SDS011;9102;53.548;9.926;2022-12-18T13:08:53;31.90;;;13.27;;
17953;SDS011;9102;53.548;9.926;2022-12-18T13:14:32;28.33;;;13.30;;
17953;SDS011;9102;53.548;9.926;2022-12-18T13:17:17;25.03;;;12.67;;
17953;SDS011;9102;53.548;9.926;2022-12-18T13:20:02;25.77;;;12.57;;
17953;SDS011;9102;53.548;9.926;2022-12-18T13:22:34;27.97;;;13.03;;
17953;SDS011;9102;53.548;9.926;2022-12-18T13:25:03;32.93;;;14.40;;
17953;SDS011;9102;53.548;9.926;2022-12-18T13:30:45;27.63;;;13.43;;
17953;SDS011;9102;53.548;9.926;2022-12-18T13:36:15;33.10;;;15.37;;
17953;SDS011;9102;53.548;9.926;2022-12-18T13:39:08;30.43;;;13.97;;
17953;SDS011;9102;53.548;9.926;2022-12-18T13:41:37;32.23;;;14.07;;
17953;SDS011;9102;53.548;9.926;2022-12-18T13:44:20;38.47;;;15.40;;
17953;SDS011;9102;53.548;9.926;2022-12-18T13:46:54;34.33;;;15.87;;
17953;SDS011;9102;53.548;9.926;2022-12-18T13:49:22;32.20;;;15.23;;
17953;SDS011;9102;53.548;9.926;2022-12-18T13:51:52;38.20;;;15.43;;
17953;SDS011;9102;53.548;9.926;2022-12-18T13:54:23;37.90;;;15.40;;
17953;SDS011;9102;53.548;9.926;2022-12-18T13:56:53;34.63;;;15.87;;
17953;SDS011;9102;53.548;9.926;2022-12-18T13:59:21;38.83;;;15.87;;
17953;SDS011;9102;53.548;9.926;2022-12-18T14:01:51;35.00;;;16.03;;
17953;SDS011;9102;53.548;9.926;2022-12-18T14:04:24;35.90;;;15.70;;
17953;SDS011;9102;53.548;9.926;2022-12-18T14:06:57;38.37;;;16.20;;
17953;SDS011;9102;53.548;9.926;2022-12-18T14:09:29;37.90;;;15.77;;
17953;SDS011;9102;53.548;9.926;2022-12-18T14:11:57;35.97;;;16.13;;
17953;SDS011;9102;53.548;9.926;2022-12-18T14:14:40;41.90;;;16.10;;
17953;SDS011;9102;53.548;9.926;2022-12-18T14:17:11;36.53;;;16.37;;
17953;SDS011;9102;53.548;9.926;2022-12-18T14:19:41;34.00;;;15.97;;
17953;SDS011;9102;53.548;9.926;2022-12-18T14:22:12;39.63;;;15.43;;
17953;SDS011;9102;53.548;9.926;2022-12-18T14:24:42;36.80;;;15.70;;
17953;SDS011;9102;53.548;9.926;2022-12-18T14:27:12;39.07;;;16.50;;
17953;SDS011;9102;53.548;9.926;2022-12-18T14:29:47;38.73;;;16.90;;
17953;SDS011;9102;53.548;9.926;2022-12-18T14:32:15;41.60;;;15.60;;
17953;SDS011;9102;53.548;9.926;2022-12-18T14:34:44;36.40;;;15.70;;
17953;SDS011;9102;53.548;9.926;2022-12-18T14:37:13;44.17;;;17.50;;
17953;SDS011;9102;53.548;9.926;2022-12-18T14:39:51;45.83;;;16.57;;
17953;SDS011;9102;53.548;9.926;2022-12-18T14:42:21;39.37;;;16.70;;
17953;SDS011;9102;53.548;9.926;2022-12-18T14:44:48;41.47;;;16.23;;
17953;SDS011;9102;53.548;9.926;2022-12-18T14:47:16;45.83;;;18.90;;
17953;SDS011;9102;53.548;9.926;2022-12-18T14:49:45;38.60;;;16.23;;
17953;SDS011;9102;53.548;9.926;2022-12-18T14:52:17;41.60;;;16.37;;
17953;SDS011;9102;53.548;9.926;2022-12-18T14:54:49;42.53;;;16.37;;
17953;SDS011;9102;53.548;9.926;2022-12-18T14:57:20;43.97;;;17.40;;
17953;SDS011;9102;53.548;9.926;2022-12-18T14:59:48;38.47;;;16.90;;
17953;SDS011;9102;53.548;9.926;2022-12-18T15:02:18;39.77;;;16.93;;
17953;SDS011;9102;53.548;9.926;2022-12-18T15:04:59;45.37;;;19.40;;